Fern Park, Florida
Current Conditions -  °F | °C
As of 10:53 PM on Monday 20 Oct 2014 (Local Time) from KORL Reporting Station
Clear Clear  
Wind Chill: 74°   Ceiling: Unl
Heat Index: 74°   Visibility: 10mi
Dew Point: 68°   Wind: 3mph
Humidity: 82%   Direction: 90°E
Pressure: 29.98"   Gusts: NA
Location:  28.653°N, 81.3426°W
Report Text: KORL 210253Z AUTO 09003KT 10SM CLR 23/20 A2998 RMK AO2 SLP156 T02330200 50004
Loading
Personal Weather Stations






























Interactive Weather Map
Tropical Storm Tracking
New forecast layout! Learn more

10-Day Weather Forecast

Advertisements
Track Severe Weather on mobile